createdAt,value
2023-04-02T00:02:23.382Z,96.12
2023-04-02T00:05:19.767Z,95.72
2023-04-02T00:07:50.779Z,95.45
2023-04-02T00:10:28.052Z,95.77
2023-04-02T00:13:09.868Z,95.00
2023-04-02T00:15:40.924Z,95.28
2023-04-02T00:18:07.990Z,94.82
2023-04-02T00:20:38.596Z,94.79
2023-04-02T00:23:05.250Z,95.03
2023-04-02T00:25:36.162Z,94.77
2023-04-02T00:28:03.819Z,94.48
2023-04-02T00:30:30.421Z,94.20
2023-04-02T00:32:57.936Z,94.14
2023-04-02T00:35:29.065Z,93.80
2023-04-02T00:37:56.757Z,94.01
2023-04-02T00:40:27.941Z,94.67
2023-04-02T00:42:56.002Z,94.32
2023-04-02T00:45:25.427Z,94.00
2023-04-02T00:47:52.488Z,94.57
2023-04-02T00:50:23.550Z,94.26
2023-04-02T00:52:51.187Z,94.82
2023-04-02T00:55:39.061Z,95.17
2023-04-02T00:58:15.693Z,94.84
2023-04-02T01:00:48.588Z,94.88
2023-04-02T01:03:18.176Z,94.98
2023-04-02T01:06:11.015Z,94.88
2023-04-02T01:08:37.564Z,95.19
2023-04-02T01:11:10.216Z,95.04
2023-04-02T01:13:39.729Z,95.20
2023-04-02T01:16:42.374Z,94.67
2023-04-02T01:19:19.862Z,94.99
2023-04-02T01:21:53.946Z,95.25
2023-04-02T01:24:21.274Z,95.33
2023-04-02T01:26:58.791Z,95.38
2023-04-02T01:29:31.253Z,95.85
2023-04-02T01:32:02.571Z,95.93
2023-04-02T01:34:30.987Z,95.81
2023-04-02T01:36:57.401Z,96.31
2023-04-02T01:39:42.789Z,95.94
2023-04-02T01:42:17.192Z,96.22
2023-04-02T01:44:46.567Z,96.03
2023-04-02T01:47:14.847Z,96.45
2023-04-02T01:49:44.916Z,95.95
2023-04-02T01:52:19.405Z,96.11
2023-04-02T01:54:47.475Z,96.71
2023-04-02T01:57:14.363Z,96.23
2023-04-02T01:59:41.239Z,96.02
2023-04-02T02:02:11.841Z,95.71
2023-04-02T02:04:39.346Z,96.16
2023-04-02T02:07:06.135Z,95.78
2023-04-02T02:09:35.948Z,95.73
2023-04-02T02:12:03.433Z,95.96
2023-04-02T02:14:30.907Z,95.96
2023-04-02T02:17:02.042Z,96.67
2023-04-02T02:19:44.035Z,96.16
2023-04-02T02:22:10.627Z,96.63
2023-04-02T02:24:37.341Z,96.29
2023-04-02T02:27:07.005Z,96.53
2023-04-02T02:29:36.253Z,96.60
2023-04-02T02:32:04.160Z,96.48
2023-04-02T02:34:35.248Z,96.96
2023-04-02T02:37:08.116Z,97.92
2023-04-02T02:39:37.441Z,97.87
2023-04-02T02:42:09.980Z,97.71
2023-04-02T02:44:37.909Z,97.60
2023-04-02T02:47:06.943Z,97.62
2023-04-02T02:49:38.643Z,97.43
2023-04-02T02:52:14.192Z,97.58
2023-04-02T02:54:43.766Z,97.31
2023-04-02T02:57:12.745Z,96.96
2023-04-02T02:59:39.324Z,96.71
2023-04-02T03:02:07.329Z,97.46
2023-04-02T03:04:37.468Z,97.00
2023-04-02T03:07:06.139Z,96.86
2023-04-02T03:09:44.755Z,96.99
2023-04-02T03:12:26.435Z,97.62
2023-04-02T03:15:01.154Z,97.42
2023-04-02T03:17:40.939Z,97.61
2023-04-02T03:20:14.680Z,97.20
2023-04-02T03:22:58.549Z,97.29
2023-04-02T03:25:27.894Z,97.18
2023-04-02T03:27:58.373Z,96.85
2023-04-02T03:30:30.850Z,97.77
2023-04-02T03:33:11.940Z,99.66
2023-04-02T03:35:43.173Z,99.25
2023-04-02T03:38:22.892Z,99.01
2023-04-02T03:40:59.153Z,99.27
2023-04-02T03:43:27.159Z,99.50
2023-04-02T03:45:58.004Z,100.00
2023-04-02T03:48:27.980Z,100.00
2023-04-02T03:51:05.479Z,100.00
2023-04-02T03:53:32.497Z,100.00
2023-04-02T03:55:59.376Z,99.92
2023-04-02T03:58:34.969Z,99.78
2023-04-02T04:01:08.925Z,99.46
2023-04-02T04:03:46.619Z,99.60
2023-04-02T04:06:21.276Z,100.00
2023-04-02T04:08:54.753Z,100.00
2023-04-02T04:11:36.107Z,100.00
2023-04-02T04:14:02.548Z,100.00
2023-04-02T04:16:55.590Z,100.00
2023-04-02T04:19:29.140Z,100.00
2023-04-02T04:22:08.903Z,100.00
2023-04-02T04:24:39.346Z,100.00
2023-04-02T04:27:35.048Z,100.00
2023-04-02T04:30:10.410Z,100.00
2023-04-02T04:32:39.131Z,100.00
2023-04-02T04:35:19.040Z,100.00
2023-04-02T04:37:49.745Z,100.00
2023-04-02T04:40:18.913Z,100.00
2023-04-02T04:42:45.852Z,100.00
2023-04-02T04:45:31.221Z,100.00
2023-04-02T04:48:00.040Z,100.00
2023-04-02T04:50:33.943Z,100.00
2023-04-02T04:53:15.450Z,100.00
2023-04-02T04:55:47.134Z,100.00
2023-04-02T04:58:32.349Z,100.00
2023-04-02T05:00:58.764Z,100.00
2023-04-02T05:03:34.384Z,100.00
2023-04-02T05:06:03.681Z,100.00
2023-04-02T05:08:32.545Z,100.00
2023-04-02T05:11:02.262Z,100.00
2023-04-02T05:13:44.719Z,100.00
2023-04-02T05:16:16.478Z,100.00
2023-04-02T05:18:59.242Z,100.00
2023-04-02T05:21:49.114Z,100.00
2023-04-02T05:24:39.329Z,100.00
2023-04-02T05:27:13.282Z,100.00
2023-04-02T05:29:42.381Z,100.00
2023-04-02T05:32:11.957Z,100.00
2023-04-02T05:34:39.754Z,100.00
2023-04-02T05:37:09.175Z,100.00
2023-04-02T05:39:35.700Z,100.00
2023-04-02T05:42:07.469Z,100.00
2023-04-02T05:44:38.992Z,100.00
2023-04-02T05:47:40.807Z,100.00
2023-04-02T05:50:07.690Z,100.00
2023-04-02T05:52:37.722Z,100.00
2023-04-02T05:55:13.404Z,100.00
2023-04-02T05:58:21.461Z,100.00
2023-04-02T06:00:52.164Z,100.00
2023-04-02T06:03:32.385Z,100.00
2023-04-02T06:06:02.910Z,100.00
2023-04-02T06:08:41.685Z,100.00
2023-04-02T06:11:11.221Z,100.00
2023-04-02T06:13:38.103Z,100.00
2023-04-02T06:16:04.689Z,100.00
2023-04-02T06:18:33.493Z,100.00
2023-04-02T06:21:00.793Z,100.00
2023-04-02T06:23:38.060Z,100.00
2023-04-02T06:26:07.271Z,100.00
2023-04-02T06:28:43.174Z,100.00
2023-04-02T06:31:14.574Z,100.00
2023-04-02T06:33:41.056Z,100.00
2023-04-02T06:36:08.556Z,100.00
2023-04-02T06:38:35.792Z,100.00
2023-04-02T06:41:05.644Z,100.00
2023-04-02T06:43:38.969Z,100.00
2023-04-02T06:46:09.432Z,100.00
2023-04-02T06:48:37.177Z,100.00
2023-04-02T06:51:07.262Z,100.00
2023-04-02T06:53:39.019Z,100.00
2023-04-02T06:56:08.317Z,100.00
2023-04-02T06:58:34.781Z,100.00
2023-04-02T07:01:01.455Z,100.00
2023-04-02T07:03:29.234Z,100.00
2023-04-02T07:05:56.319Z,100.00
2023-04-02T07:08:23.368Z,100.00
2023-04-02T07:10:50.058Z,100.00
2023-04-02T07:13:18.196Z,100.00
2023-04-02T07:15:45.783Z,100.00
2023-04-02T07:18:23.288Z,100.00
2023-04-02T07:20:50.660Z,100.00
2023-04-02T07:23:18.509Z,100.00
2023-04-02T07:25:44.928Z,100.00
2023-04-02T07:28:12.237Z,100.00
2023-04-02T07:30:38.881Z,100.00
2023-04-02T07:33:05.670Z,100.00
2023-04-02T07:35:32.253Z,100.00
2023-04-02T07:37:58.784Z,100.00
2023-04-02T07:40:25.347Z,100.00
2023-04-02T07:42:51.859Z,100.00
2023-04-02T07:45:18.360Z,100.00
2023-04-02T07:47:44.886Z,100.00
2023-04-02T07:50:11.461Z,100.00
2023-04-02T07:52:44.931Z,100.00
2023-04-02T07:55:12.771Z,100.00
2023-04-02T07:57:52.775Z,100.00
2023-04-02T08:00:19.356Z,100.00
2023-04-02T08:02:45.942Z,100.00
2023-04-02T08:05:12.636Z,100.00
2023-04-02T08:07:39.483Z,100.00
2023-04-02T08:10:07.029Z,100.00
2023-04-02T08:12:33.482Z,100.00
2023-04-02T08:15:00.051Z,100.00
2023-04-02T08:17:31.309Z,100.00
2023-04-02T08:20:01.068Z,100.00
2023-04-02T08:22:28.630Z,100.00
2023-04-02T08:24:56.386Z,99.94
2023-04-02T08:27:25.940Z,99.77
2023-04-02T08:29:52.432Z,99.86
2023-04-02T08:32:18.871Z,99.67
2023-04-02T08:34:45.848Z,100.00
2023-04-02T08:37:12.902Z,100.00
2023-04-02T08:39:39.919Z,100.00
2023-04-02T08:42:16.536Z,100.00
2023-04-02T08:44:54.940Z,100.00
2023-04-02T08:47:25.882Z,99.73
2023-04-02T08:49:55.414Z,100.00
2023-04-02T08:52:26.699Z,100.00
2023-04-02T08:54:53.668Z,100.00
2023-04-02T08:57:23.001Z,100.00
2023-04-02T08:59:52.937Z,100.00
2023-04-02T09:02:29.212Z,100.00
2023-04-02T09:04:59.981Z,100.00
2023-04-02T09:07:27.030Z,99.83
2023-04-02T09:09:53.541Z,100.00
2023-04-02T09:12:41.899Z,100.00
2023-04-02T09:15:18.583Z,100.00
2023-04-02T09:17:53.738Z,100.00
2023-04-02T09:20:26.301Z,100.00
2023-04-02T09:22:54.283Z,100.00
2023-04-02T09:25:22.688Z,99.98
2023-04-02T09:27:50.302Z,100.00
2023-04-02T09:30:31.943Z,99.25
2023-04-02T09:33:02.104Z,98.36
2023-04-02T09:35:29.872Z,98.63
2023-04-02T09:38:14.933Z,97.83
2023-04-02T09:40:50.643Z,98.09
2023-04-02T09:43:21.720Z,97.98
2023-04-02T09:46:02.412Z,97.60
2023-04-02T09:48:33.917Z,97.96
2023-04-02T09:51:11.380Z,97.86
2023-04-02T09:53:56.668Z,97.10
2023-04-02T09:56:24.337Z,96.56
2023-04-02T09:59:03.194Z,97.16
2023-04-02T10:01:34.140Z,97.90
2023-04-02T10:04:02.181Z,95.38
2023-04-02T10:06:29.336Z,95.87
2023-04-02T10:08:56.214Z,95.93
2023-04-02T10:11:22.992Z,94.50
2023-04-02T10:13:56.648Z,93.68
2023-04-02T10:16:27.235Z,93.99
2023-04-02T10:19:02.677Z,92.53
2023-04-02T10:21:32.356Z,90.64
2023-04-02T10:23:59.708Z,90.73
2023-04-02T10:26:27.240Z,91.28
2023-04-02T10:29:04.429Z,91.98
2023-04-02T10:31:50.208Z,93.74
2023-04-02T10:34:43.363Z,93.81
2023-04-02T10:37:16.070Z,91.33
2023-04-02T10:39:50.031Z,88.07
2023-04-02T10:42:16.567Z,88.49
2023-04-02T10:44:42.980Z,89.24
2023-04-02T10:47:16.204Z,90.41
2023-04-02T10:50:04.381Z,89.54
2023-04-02T10:52:35.068Z,89.68
2023-04-02T10:55:04.020Z,90.29
2023-04-02T10:57:30.639Z,91.57
2023-04-02T11:00:22.145Z,91.31
2023-04-02T11:02:51.692Z,91.68
2023-04-02T11:05:25.413Z,91.21
2023-04-02T11:07:55.176Z,92.01
2023-04-02T11:10:21.697Z,89.68
2023-04-02T11:12:55.091Z,89.37
2023-04-02T11:15:22.162Z,87.66
2023-04-02T11:17:48.798Z,88.24
2023-04-02T11:20:34.130Z,89.02
2023-04-02T11:23:13.771Z,89.28
2023-04-02T11:25:41.506Z,88.31
2023-04-02T11:28:18.664Z,86.84
2023-04-02T11:30:47.300Z,87.17
2023-04-02T11:33:43.150Z,87.28
2023-04-02T11:36:30.210Z,86.74
2023-04-02T11:39:04.500Z,87.05
2023-04-02T11:41:57.659Z,85.61
2023-04-02T11:44:24.610Z,86.34
2023-04-02T11:46:51.647Z,86.32
2023-04-02T11:49:39.674Z,86.02
2023-04-02T11:52:19.738Z,86.39
2023-04-02T11:54:47.908Z,86.17
2023-04-02T11:57:25.305Z,86.77
2023-04-02T11:59:57.852Z,86.91
2023-04-02T12:02:28.758Z,87.20
2023-04-02T12:05:19.481Z,86.92
2023-04-02T12:07:46.752Z,87.55
2023-04-02T12:10:17.520Z,87.49
2023-04-02T12:12:44.127Z,88.10
2023-04-02T12:15:29.121Z,88.71
2023-04-02T12:18:06.559Z,90.16
2023-04-02T12:20:34.249Z,91.25
2023-04-02T12:23:01.247Z,92.43
2023-04-02T12:25:31.635Z,93.48
2023-04-02T12:28:04.170Z,93.64
2023-04-02T12:30:30.606Z,94.08
2023-04-02T12:32:57.413Z,93.78
2023-04-02T12:35:32.524Z,94.36
2023-04-02T12:37:59.065Z,95.18
2023-04-02T12:40:28.925Z,94.98
2023-04-02T12:42:55.492Z,95.84
2023-04-02T12:45:36.830Z,97.42
2023-04-02T12:48:06.086Z,97.09
2023-04-02T12:50:34.092Z,96.98
2023-04-02T12:53:01.370Z,97.18
2023-04-02T12:55:27.992Z,96.70
2023-04-02T12:57:58.278Z,97.10
2023-04-02T13:00:27.950Z,96.96
2023-04-02T13:03:01.183Z,95.33
2023-04-02T13:05:35.485Z,96.09
2023-04-02T13:08:02.120Z,95.96
2023-04-02T13:10:28.727Z,96.03
2023-04-02T13:12:56.605Z,95.26
2023-04-02T13:15:29.125Z,94.79
2023-04-02T13:18:19.233Z,95.24
2023-04-02T13:20:59.773Z,95.85
2023-04-02T13:23:29.184Z,95.63
2023-04-02T13:25:56.145Z,96.07
2023-04-02T13:28:23.002Z,95.61
2023-04-02T13:30:49.519Z,94.47
2023-04-02T13:33:16.711Z,91.93
2023-04-02T13:35:43.915Z,92.56
2023-04-02T13:38:10.416Z,93.35
2023-04-02T13:40:37.592Z,91.29
2023-04-02T13:43:05.141Z,91.83
2023-04-02T13:45:36.713Z,91.34
2023-04-02T13:48:03.674Z,91.57
2023-04-02T13:50:31.201Z,90.13
2023-04-02T13:52:58.850Z,90.64
2023-04-02T13:55:27.916Z,91.60
2023-04-02T13:57:55.479Z,91.85
2023-04-02T14:00:22.036Z,92.78
2023-04-02T14:02:51.831Z,91.34
2023-04-02T14:05:30.524Z,91.97
2023-04-02T14:07:56.973Z,92.69
2023-04-02T14:10:30.480Z,92.10
2023-04-02T14:12:57.346Z,91.30
2023-04-02T14:15:44.854Z,90.07
2023-04-02T14:18:14.413Z,90.24
2023-04-02T14:20:59.645Z,91.03
2023-04-02T14:23:33.182Z,89.50
2023-04-02T14:26:06.177Z,90.47
2023-04-02T14:28:57.718Z,91.14
2023-04-02T14:31:31.703Z,91.40
2023-04-02T14:34:03.654Z,89.76
2023-04-02T14:36:49.872Z,90.14
2023-04-02T14:39:16.320Z,89.97
2023-04-02T14:41:47.224Z,90.28
2023-04-02T14:44:15.390Z,90.44
2023-04-02T14:46:42.494Z,90.75
2023-04-02T14:49:08.973Z,91.02
2023-04-02T14:51:43.474Z,90.90
2023-04-02T14:54:12.778Z,91.17
2023-04-02T14:56:44.651Z,91.79
2023-04-02T14:59:11.553Z,92.01
2023-04-02T15:01:40.909Z,91.37
2023-04-02T15:04:12.047Z,91.40
2023-04-02T15:06:41.765Z,91.58
2023-04-02T15:09:16.299Z,91.20
2023-04-02T15:11:46.541Z,90.30
2023-04-02T15:14:33.200Z,90.84
2023-04-02T15:16:59.756Z,90.66
2023-04-02T15:19:26.260Z,90.97
2023-04-02T15:22:02.159Z,90.89
2023-04-02T15:24:32.526Z,91.33
2023-04-02T15:27:31.573Z,91.92
2023-04-02T15:30:00.831Z,91.79
2023-04-02T15:32:30.519Z,92.00
2023-04-02T15:34:59.948Z,91.42
2023-04-02T15:37:44.090Z,91.32
2023-04-02T15:40:29.253Z,91.21
2023-04-02T15:43:14.568Z,90.45
2023-04-02T15:45:41.131Z,90.18
2023-04-02T15:48:16.450Z,89.68
2023-04-02T15:50:58.800Z,90.98
2023-04-02T15:53:31.204Z,91.38
2023-04-02T15:56:08.671Z,91.19
2023-04-02T15:58:56.832Z,91.31
2023-04-02T16:01:23.357Z,91.31
2023-04-02T16:04:01.989Z,90.92
2023-04-02T16:06:40.450Z,91.04
2023-04-02T16:09:23.289Z,90.66
2023-04-02T16:11:56.661Z,90.97
2023-04-02T16:14:30.342Z,91.70
2023-04-02T16:17:10.909Z,91.66
2023-04-02T16:19:56.941Z,91.81
2023-04-02T16:22:26.710Z,91.85
2023-04-02T16:25:06.931Z,91.55
2023-04-02T16:27:36.720Z,91.70
2023-04-02T16:30:06.541Z,91.73
2023-04-02T16:32:42.106Z,91.97
2023-04-02T16:35:41.691Z,93.11
2023-04-02T16:38:27.576Z,92.79
2023-04-02T16:41:07.763Z,91.98
2023-04-02T16:43:38.055Z,92.28
2023-04-02T16:46:36.343Z,92.17
2023-04-02T16:49:25.357Z,92.23
2023-04-02T16:52:01.133Z,92.15
2023-04-02T16:54:36.079Z,92.43
2023-04-02T16:57:17.355Z,92.80
2023-04-02T16:59:50.808Z,92.70
2023-04-02T17:02:36.230Z,92.92
2023-04-02T17:05:14.855Z,92.41
2023-04-02T17:07:46.223Z,92.27
2023-04-02T17:10:12.763Z,92.44
2023-04-02T17:12:41.954Z,92.30
2023-04-02T17:15:27.776Z,92.51
2023-04-02T17:17:57.349Z,93.05
2023-04-02T17:20:25.970Z,93.87
2023-04-02T17:22:53.364Z,93.62
2023-04-02T17:25:25.420Z,93.46
2023-04-02T17:27:54.221Z,92.82
2023-04-02T17:30:29.696Z,92.81
2023-04-02T17:32:56.199Z,92.75
2023-04-02T17:35:26.838Z,92.44
2023-04-02T17:38:04.610Z,92.38
2023-04-02T17:40:48.617Z,92.29
2023-04-02T17:43:15.537Z,93.10
2023-04-02T17:45:47.185Z,93.18
2023-04-02T17:48:13.851Z,93.01
2023-04-02T17:50:43.725Z,93.29
2023-04-02T17:53:19.065Z,93.01
2023-04-02T17:56:04.267Z,92.04
2023-04-02T17:58:48.177Z,91.98
2023-04-02T18:01:17.400Z,92.32
2023-04-02T18:04:02.089Z,92.30
2023-04-02T18:06:39.574Z,93.01
2023-04-02T18:09:11.778Z,91.99
2023-04-02T18:11:54.927Z,91.76
2023-04-02T18:14:47.837Z,92.00
2023-04-02T18:17:22.076Z,92.06
2023-04-02T18:19:51.800Z,91.42
2023-04-02T18:22:23.134Z,91.73
2023-04-02T18:25:08.489Z,91.00
2023-04-02T18:27:37.654Z,90.98
2023-04-02T18:30:23.021Z,90.98
2023-04-02T18:32:49.555Z,91.11
2023-04-02T18:35:26.938Z,90.32
2023-04-02T18:37:56.224Z,90.52
2023-04-02T18:40:22.841Z,90.95
2023-04-02T18:42:52.495Z,90.91
2023-04-02T18:45:33.572Z,90.62
2023-04-02T18:48:11.578Z,89.49
2023-04-02T18:50:45.960Z,89.88
2023-04-02T18:53:13.970Z,90.32
2023-04-02T18:55:46.607Z,90.14
2023-04-02T18:58:15.950Z,88.91
2023-04-02T19:00:44.479Z,88.21
2023-04-02T19:03:18.639Z,88.98
2023-04-02T19:05:53.975Z,89.53
2023-04-02T19:08:28.114Z,89.40
2023-04-02T19:10:58.843Z,89.71
2023-04-02T19:13:25.632Z,90.03
2023-04-02T19:16:06.530Z,90.79
2023-04-02T19:18:51.847Z,90.88
2023-04-02T19:21:18.289Z,89.79
2023-04-02T19:24:01.593Z,90.38
2023-04-02T19:26:36.501Z,90.42
2023-04-02T19:29:05.611Z,90.33
2023-04-02T19:31:32.129Z,91.34
2023-04-02T19:34:17.202Z,90.87
2023-04-02T19:36:47.268Z,91.66
2023-04-02T19:39:22.613Z,91.25
2023-04-02T19:41:53.217Z,91.32
2023-04-02T19:44:20.318Z,91.41
2023-04-02T19:46:47.155Z,91.45
2023-04-02T19:49:19.949Z,91.59
2023-04-02T19:51:46.417Z,92.06
2023-04-02T19:54:12.914Z,92.29
2023-04-02T19:56:39.733Z,91.49
2023-04-02T19:59:17.112Z,91.62
2023-04-02T20:01:44.397Z,91.71
2023-04-02T20:04:11.000Z,91.66
2023-04-02T20:06:37.798Z,91.16
2023-04-02T20:09:04.488Z,91.67
2023-04-02T20:11:31.066Z,90.91
2023-04-02T20:13:57.518Z,91.48
2023-04-02T20:16:24.106Z,90.45
2023-04-02T20:18:50.960Z,90.57
2023-04-02T20:21:17.482Z,90.69
2023-04-02T20:23:43.945Z,91.42
2023-04-02T20:26:10.588Z,90.78
2023-04-02T20:28:37.112Z,91.24
2023-04-02T20:31:11.137Z,91.22
2023-04-02T20:33:38.433Z,91.48
2023-04-02T20:36:06.795Z,91.89
2023-04-02T20:38:33.370Z,92.08
2023-04-02T20:41:00.827Z,91.82
2023-04-02T20:43:28.426Z,90.75
2023-04-02T20:45:59.621Z,91.14
2023-04-02T20:48:30.887Z,91.11
2023-04-02T20:50:57.368Z,90.81
2023-04-02T20:53:23.821Z,91.76
2023-04-02T20:55:50.337Z,91.24
2023-04-02T20:58:17.982Z,91.01
2023-04-02T21:00:44.859Z,90.70
2023-04-02T21:03:11.795Z,90.61
2023-04-02T21:05:45.008Z,90.21
2023-04-02T21:08:12.283Z,89.88
2023-04-02T21:10:39.313Z,90.21
2023-04-02T21:13:05.942Z,91.00
2023-04-02T21:15:32.622Z,91.61
2023-04-02T21:17:59.165Z,92.05
2023-04-02T21:20:26.664Z,91.92
2023-04-02T21:22:53.330Z,91.71
2023-04-02T21:25:20.233Z,92.45
2023-04-02T21:27:46.686Z,93.07
2023-04-02T21:30:13.223Z,92.36
2023-04-02T21:32:39.692Z,92.41
2023-04-02T21:35:07.606Z,92.13
2023-04-02T21:37:34.084Z,92.79
2023-04-02T21:40:00.600Z,92.60
2023-04-02T21:42:27.900Z,93.00
2023-04-02T21:44:55.966Z,92.86
2023-04-02T21:47:23.578Z,93.22
2023-04-02T21:49:50.110Z,93.26
2023-04-02T21:52:16.542Z,92.96
2023-04-02T21:54:42.971Z,92.46
2023-04-02T21:57:09.753Z,92.41
2023-04-02T21:59:36.193Z,92.00
2023-04-02T22:02:02.657Z,92.64
2023-04-02T22:04:30.719Z,91.83
2023-04-02T22:06:57.352Z,91.27
2023-04-02T22:09:25.079Z,91.88
2023-04-02T22:11:54.304Z,91.38
2023-04-02T22:14:21.314Z,91.06
2023-04-02T22:16:47.871Z,91.80
2023-04-02T22:19:15.989Z,91.13
2023-04-02T22:21:42.922Z,91.27
2023-04-02T22:24:12.469Z,91.07
2023-04-02T22:26:40.428Z,90.96
2023-04-02T22:29:07.748Z,90.98
2023-04-02T22:31:35.139Z,91.29
2023-04-02T22:34:02.707Z,91.28
2023-04-02T22:36:29.437Z,90.63
2023-04-02T22:38:56.662Z,91.29
2023-04-02T22:41:25.995Z,90.99
2023-04-02T22:43:52.604Z,91.66
2023-04-02T22:46:19.649Z,91.65
2023-04-02T22:48:46.868Z,91.56
2023-04-02T22:51:14.418Z,91.76
2023-04-02T22:53:41.673Z,92.46
2023-04-02T22:56:14.110Z,92.74
2023-04-02T22:58:40.695Z,93.00
2023-04-02T23:01:08.473Z,94.10
2023-04-02T23:03:35.548Z,93.82
2023-04-02T23:06:04.283Z,94.17
2023-04-02T23:08:30.954Z,93.89
2023-04-02T23:11:01.735Z,94.37
2023-04-02T23:13:28.210Z,94.04
2023-04-02T23:15:54.763Z,94.27
2023-04-02T23:18:21.450Z,93.31
2023-04-02T23:20:47.906Z,92.98
2023-04-02T23:23:14.354Z,93.46
2023-04-02T23:25:41.313Z,93.37
2023-04-02T23:28:07.761Z,94.22
2023-04-02T23:30:34.517Z,94.64
2023-04-02T23:33:02.711Z,94.88
2023-04-02T23:35:30.346Z,94.49
2023-04-02T23:37:57.033Z,93.63
2023-04-02T23:40:23.494Z,93.63
2023-04-02T23:42:49.925Z,94.11
2023-04-02T23:45:17.575Z,93.35
2023-04-02T23:47:44.367Z,93.94
2023-04-02T23:50:10.954Z,93.35
2023-04-02T23:52:37.668Z,93.23
2023-04-02T23:55:04.206Z,94.00
2023-04-02T23:57:30.943Z,93.45
2023-04-02T23:59:57.440Z,93.52
